Time;durP1;ratioP1;P1;durP2;ratioP2;P2;SDS_P1;SDS_P2;PMS_P1;PMS_P2;Temp;Humidity;BMP_temperature;BMP_pressure;BME280_temperature;BME280_humidity;BME280_pressure;Samples;Min_cycle;Max_cycle;Signal;HPM_P1;HPM_P2
2022/04/09 00:00:41;;;;;;;;;;;;;;;;;;5057094;28;28350;-94
2022/04/09 00:03:07;;;;;;;;;;;;;;;;;;5046245;28;28208;-96
2022/04/09 00:05:32;;;;;;;;;;;;;;;;;;5048073;28;27757;-94
2022/04/09 00:07:57;;;;;;;;;;;;;;;;;;5046351;28;27897;-94
2022/04/09 00:10:22;;;;;;;;;;;;;;;;;;5035878;28;28218;-96
2022/04/09 00:12:50;;;;;;;;;;;;;;;;;;5036485;28;28156;-95
2022/04/09 00:15:18;;;;;;;;;;;;;;;;;;5042236;28;28301;-95
2022/04/09 00:17:43;;;;;;;;;;;;;;;;;;5064179;28;28348;-94
2022/04/09 00:20:09;;;;;;;;;;;;;;;;;;5063121;28;29973;-94
2022/04/09 00:22:34;;;;;;;;;;;;;;;;;;5033687;28;28341;-93
2022/04/09 00:24:59;;;;;;;;;;;;;;;;;;5063783;28;28365;-94
2022/04/09 00:27:25;;;;;;;;;;;;;;;;;;5066915;28;27852;-94
2022/04/09 00:29:50;;;;;;;;;;;;;;;;;;5063231;28;30213;-94
2022/04/09 00:32:15;;;;;;;;;;;;;;;;;;5053660;28;28408;-96
2022/04/09 00:34:40;;;;;;;;;;;;;;;;;;5030571;28;28287;-94
2022/04/09 00:37:05;;;;;;;;;;;;;;;;;;5054325;28;28429;-94
2022/04/09 00:39:30;;;;;;;;;;;;;;;;;;5041919;28;29755;-95
2022/04/09 00:41:55;;;;;;;;;;;;;;;;;;5056671;28;29306;-94
2022/04/09 00:44:21;;;;;;;;;;;;;;;;;;5034844;28;28415;-95
2022/04/09 00:46:46;;;;;;;;;;;;;;;;;;5046601;28;27919;-94
2022/04/09 00:49:11;;;;;;;;;;;;;;;;;;5052186;28;29667;-94
2022/04/09 00:51:37;;;;;;;;;;;;;;;;;;5061299;28;28456;-94
2022/04/09 00:54:08;;;;;;;;;;;;;;;;;;5054481;28;27733;-94
2022/04/09 00:56:33;;;;;;;;;;;;;;;;;;5039602;28;27980;-95
2022/04/09 00:58:58;;;;;;;;;;;;;;;;;;5060589;28;29690;-93
2022/04/09 01:01:23;;;;;;;;;;;;;;;;;;5041301;28;28528;-94
2022/04/09 01:03:48;;;;;;;;;;;;;;;;;;5044275;28;28368;-94
2022/04/09 01:06:13;;;;;;;;;;;;;;;;;;5053767;28;28562;-95
2022/04/09 01:08:39;;;;;;;;;;;;;;;;;;5060551;28;30068;-95
2022/04/09 01:11:04;;;;;;;;;;;;;;;;;;5048534;28;28064;-94
2022/04/09 01:13:29;;;;;;;;;;;;;;;;;;5044677;28;28442;-94
2022/04/09 01:15:54;;;;;;;;;;;;;;;;;;5048897;28;27871;-95
2022/04/09 01:18:21;;;;;;;;;;;;;;;;;;5056991;28;30018;-94
2022/04/09 01:20:50;;;;;;;;;;;;;;;;;;5059273;28;27678;-95
2022/04/09 01:23:18;;;;;;;;;;;;;;;;;;5060063;28;27646;-95
2022/04/09 01:25:44;;;;;;;;;;;;;;;;;;5053461;28;27951;-94
2022/04/09 01:28:09;;;;;;;;;;;;;;;;;;5049212;28;28327;-94
2022/04/09 01:30:35;;;;;;;;;;;;;;;;;;5044482;28;28604;-94
2022/04/09 01:33:01;;;;;;;;;;;;;;;;;;5043828;28;28446;-95
2022/04/09 01:35:27;;;;;;;;;;;;;;;;;;5050461;28;27883;-95
2022/04/09 01:37:52;;;;;;;;;;;;;;;;;;5043160;28;30248;-94
2022/04/09 01:40:17;;;;;;;;;;;;;;;;;;5049023;28;28893;-93
2022/04/09 01:42:43;;;;;;;;;;;;;;;;;;5039696;28;28254;-95
2022/04/09 01:45:08;;;;;;;;;;;;;;;;;;5054324;28;27864;-93
2022/04/09 01:47:34;;;;;;;;;;;;;;;;;;5056732;28;30570;-93
2022/04/09 01:49:59;;;;;;;;;;;;;;;;;;5055770;28;28687;-93
2022/04/09 01:52:24;;;;;;;;;;;;;;;;;;5046458;28;28257;-95
2022/04/09 01:54:49;;;;;;;;;;;;;;;;;;5020572;28;28386;-94
2022/04/09 01:57:15;;;;;;;;;;;;;;;;;;5036086;28;30941;-92
2022/04/09 01:59:43;;;;;;;;;;;;;;;;;;5024533;28;28280;-92
2022/04/09 02:02:08;;;;;;;;;;;;;;;;;;5048179;28;28496;-94
2022/04/09 02:04:33;;;;;;;;;;;;;;;;;;5032736;28;27825;-94
2022/04/09 02:06:59;;;;;;;;;;;;;;;;;;5038283;28;29961;-95
2022/04/09 02:09:24;;;;;;;;;;;;;;;;;;5046320;28;28811;-94
2022/04/09 02:11:49;;;;;;;;;;;;;;;;;;5056760;28;28450;-94
2022/04/09 02:14:14;;;;;;;;;;;;;;;;;;5049129;28;27837;-93
2022/04/09 02:16:41;;;;;;;;;;;;;;;;;;5033584;28;29664;-93
2022/04/09 02:19:06;;;;;;;;;;;;;;;;;;5040952;28;28477;-94
2022/04/09 02:21:31;;;;;;;;;;;;;;;;;;5040166;28;28400;-94
2022/04/09 02:23:56;;;;;;;;;;;;;;;;;;5041634;28;28356;-94
2022/04/09 02:26:21;;;;;;;;;;;;;;;;;;5050809;28;31050;-94
2022/04/09 02:28:48;;;;;;;;;;;;;;;;;;5043084;28;29217;-92
2022/04/09 02:31:13;;;;;;;;;;;;;;;;;;5037275;28;28408;-95
2022/04/09 02:33:38;;;;;;;;;;;;;;;;;;5024880;28;28267;-94
2022/04/09 02:36:05;;;;;;;;;;;;;;;;;;5050045;28;30179;-94
2022/04/09 02:38:30;;;;;;;;;;;;;;;;;;5030003;28;28599;-94
2022/04/09 02:40:55;;;;;;;;;;;;;;;;;;5057286;28;28341;-94
2022/04/09 02:43:21;;;;;;;;;;;;;;;;;;5066311;28;27836;-93
2022/04/09 02:45:48;;;;;;;;;;;;;;;;;;5070729;28;29646;-94
2022/04/09 02:48:21;;;;;;;;;;;;;;;;;;5065957;28;27724;-94
2022/04/09 02:51:17;;;;;;;;;;;;;;;;;;5063966;28;27858;-95
2022/04/09 02:53:42;;;;;;;;;;;;;;;;;;5065665;28;27944;-94
2022/04/09 02:56:11;;;;;;;;;;;;;;;;;;5060630;28;28390;-96
2022/04/09 02:58:45;;;;;;;;;;;;;;;;;;5045770;28;27861;-93
2022/04/09 03:01:10;;;;;;;;;;;;;;;;;;5066944;28;27839;-95
2022/04/09 03:03:36;;;;;;;;;;;;;;;;;;5058708;28;27877;-94
2022/04/09 03:18:56;;;;;;;;;;;;;;;;;;5090436;28;28148;-95
2022/04/09 03:21:21;;;;;;;;;;;;;;;;;;5090447;28;27779;-94
2022/04/09 03:23:47;;;;;;;;;;;;;;;;;;5083307;28;27903;-94
2022/04/09 03:26:12;;;;;;;;;;;;;;;;;;5071888;28;28298;-94
2022/04/09 03:28:37;;;;;;;;;;;;;;;;;;5058247;28;28316;-94
2022/04/09 03:31:02;;;;;;;;;;;;;;;;;;5164204;22;29109;-94
2022/04/09 03:35:58;;;;;;;;;;;;;;;;;;5065489;28;28434;-95
2022/04/09 03:38:23;;;;;;;;;;;;;;;;;;5059337;28;28448;-93
2022/04/09 03:40:48;;;;;;;;;;;;;;;;;;5062392;28;28426;-94
2022/04/09 03:43:13;;;;;;;;;;;;;;;;;;5065774;28;28324;-94
2022/04/09 03:45:38;;;;;;;;;;;;;;;;;;5071738;28;28209;-94
2022/04/09 03:48:04;;;;;;;;;;;;;;;;;;5075853;28;28195;-94
2022/04/09 03:50:29;;;;;;;;;;;;;;;;;;5073127;28;27820;-94
2022/04/09 03:52:55;;;;;;;;;;;;;;;;;;5072676;28;27897;-94
2022/04/09 03:55:20;;;;;;;;;;;;;;;;;;5053441;28;28719;-94
2022/04/09 04:05:32;;;;;;;;;;;;;;;;;;6060528;22;29006;-93
2022/04/09 04:07:57;;;;;;;;;;;;;;;;;;5026151;28;27781;-94
2022/04/09 04:25:50;;;;;;;;;;;;;;;;;;5047414;28;28912;-94
2022/04/09 04:28:15;;;;;;;;;;;;;;;;;;5013131;28;28453;-94
2022/04/09 04:30:40;;;;;;;;;;;;;;;;;;5018013;28;27852;-95
2022/04/09 04:33:05;;;;;;;;;;;;;;;;;;5010308;28;28448;-93
2022/04/09 04:35:30;;;;;;;;;;;;;;;;;;5007998;28;29337;-92
2022/04/09 04:37:55;;;;;;;;;;;;;;;;;;5023383;28;28359;-94
2022/04/09 04:40:21;;;;;;;;;;;;;;;;;;5046976;28;27686;-94
2022/04/09 04:42:48;;;;;;;;;;;;;;;;;;5029025;28;27837;-94
2022/04/09 04:45:14;;;;;;;;;;;;;;;;;;5024896;28;28339;-94
2022/04/09 04:47:39;;;;;;;;;;;;;;;;;;5012596;28;28548;-93
2022/04/09 04:50:04;;;;;;;;;;;;;;;;;;5027663;28;27791;-93
2022/04/09 04:52:29;;;;;;;;;;;;;;;;;;5011538;28;27924;-93
2022/04/09 04:54:54;;;;;;;;;;;;;;;;;;5004458;28;29920;-94
2022/04/09 05:28:20;;;;;;;;;;;;;;;;;;5084336;28;28218;-94
2022/04/09 05:30:45;;;;;;;;;;;;;;;;;;5070560;28;28268;-95
2022/04/09 05:33:11;;;;;;;;;;;;;;;;;;5069420;28;28281;-93
2022/04/09 05:35:36;;;;;;;;;;;;;;;;;;5047222;28;29960;-93
2022/04/09 05:38:03;;;;;;;;;;;;;;;;;;5075360;28;31449;-93
2022/04/09 05:40:28;;;;;;;;;;;;;;;;;;5064281;28;28328;-93
2022/04/09 05:42:53;;;;;;;;;;;;;;;;;;5055197;28;28674;-92
2022/04/09 05:45:18;;;;;;;;;;;;;;;;;;5058708;28;31028;-93
2022/04/09 05:47:43;;;;;;;;;;;;;;;;;;5062045;28;28425;-93
2022/04/09 05:50:09;;;;;;;;;;;;;;;;;;5068757;28;27764;-91
2022/04/09 05:52:34;;;;;;;;;;;;;;;;;;5080269;28;27821;-92
2022/04/09 05:54:59;;;;;;;;;;;;;;;;;;5081745;28;29817;-94
2022/04/09 05:57:24;;;;;;;;;;;;;;;;;;5047207;28;28421;-93
2022/04/09 05:59:50;;;;;;;;;;;;;;;;;;5050941;28;28480;-93
2022/04/09 06:02:15;;;;;;;;;;;;;;;;;;5063983;28;28077;-93
2022/04/09 06:04:40;;;;;;;;;;;;;;;;;;5064968;28;29960;-94
2022/04/09 06:07:05;;;;;;;;;;;;;;;;;;5048746;28;28207;-95
2022/04/09 06:09:30;;;;;;;;;;;;;;;;;;5084327;28;28434;-96
2022/04/09 06:11:57;;;;;;;;;;;;;;;;;;5070499;28;27852;-92
2022/04/09 06:14:22;;;;;;;;;;;;;;;;;;5057101;28;29832;-96
2022/04/09 06:16:48;;;;;;;;;;;;;;;;;;5083195;28;27889;-93
2022/04/09 06:19:13;;;;;;;;;;;;;;;;;;5044959;28;28345;-90
2022/04/09 06:21:38;;;;;;;;;;;;;;;;;;5078416;28;28462;-88
2022/04/09 06:24:03;;;;;;;;;;;;;;;;;;5078254;28;28411;-89
2022/04/09 06:26:29;;;;;;;;;;;;;;;;;;5076555;28;28593;-90
2022/04/09 06:28:54;;;;;;;;;;;;;;;;;;5076747;28;28326;-89
2022/04/09 06:31:19;;;;;;;;;;;;;;;;;;5077958;28;28683;-90
2022/04/09 06:33:44;;;;;;;;;;;;;;;;;;5077702;28;28437;-89
2022/04/09 06:36:09;;;;;;;;;;;;;;;;;;5076706;28;28257;-89
2022/04/09 06:38:34;;;;;;;;;;;;;;;;;;5076522;28;28296;-88
2022/04/09 06:40:59;;;;;;;;;;;;;;;;;;5077983;28;27830;-88
2022/04/09 06:43:26;;;;;;;;;;;;;;;;;;5077464;28;28450;-89
2022/04/09 06:45:51;;;;;;;;;;;;;;;;;;5077828;28;28560;-89
2022/04/09 06:48:16;;;;;;;;;;;;;;;;;;5077639;28;28244;-88
2022/04/09 06:50:41;;;;;;;;;;;;;;;;;;5077829;28;28434;-88
2022/04/09 06:53:06;;;;;;;;;;;;;;;;;;5077431;28;28552;-90
2022/04/09 06:55:32;;;;;;;;;;;;;;;;;;5077545;28;28524;-88
2022/04/09 06:57:57;;;;;;;;;;;;;;;;;;5076062;28;28307;-89
2022/04/09 07:00:22;;;;;;;;;;;;;;;;;;5075957;28;28773;-88
2022/04/09 07:02:47;;;;;;;;;;;;;;;;;;5077017;28;29495;-89
2022/04/09 07:05:12;;;;;;;;;;;;;;;;;;5077549;28;28402;-90
2022/04/09 07:07:37;;;;;;;;;;;;;;;;;;5075988;28;28360;-88
2022/04/09 07:10:02;;;;;;;;;;;;;;;;;;5077467;28;28415;-90
2022/04/09 07:12:27;;;;;;;;;;;;;;;;;;5075924;28;28918;-89
2022/04/09 07:14:52;;;;;;;;;;;;;;;;;;5076064;28;28524;-89
2022/04/09 07:17:18;;;;;;;;;;;;;;;;;;5077242;28;28350;-91
2022/04/09 07:19:43;;;;;;;;;;;;;;;;;;5077178;28;28338;-90
2022/04/09 07:22:08;;;;;;;;;;;;;;;;;;5076171;28;29299;-90
2022/04/09 07:24:33;;;;;;;;;;;;;;;;;;5075770;28;28722;-90
2022/04/09 07:26:58;;;;;;;;;;;;;;;;;;5075864;28;28326;-89
2022/04/09 07:29:23;;;;;;;;;;;;;;;;;;5076087;28;28534;-87
2022/04/09 07:31:49;;;;;;;;;;;;;;;;;;5078563;28;28462;-89
2022/04/09 07:34:14;;;;;;;;;;;;;;;;;;5077308;28;28323;-89
2022/04/09 07:36:39;;;;;;;;;;;;;;;;;;5077591;28;28371;-88
2022/04/09 07:39:04;;;;;;;;;;;;;;;;;;5076893;28;28435;-89
2022/04/09 07:41:29;;;;;;;;;;;;;;;;;;5076940;28;28380;-91
2022/04/09 07:43:54;;;;;;;;;;;;;;;;;;5076923;28;28430;-88
2022/04/09 07:46:19;;;;;;;;;;;;;;;;;;5077238;28;28358;-93
2022/04/09 07:48:44;;;;;;;;;;;;;;;;;;5060676;28;28443;-88
2022/04/09 07:51:09;;;;;;;;;;;;;;;;;;5058187;28;28494;-92
2022/04/09 07:53:35;;;;;;;;;;;;;;;;;;5084672;28;28535;-90
2022/04/09 07:56:00;;;;;;;;;;;;;;;;;;5057415;28;28526;-88
2022/04/09 07:58:25;;;;;;;;;;;;;;;;;;5041471;28;28542;-90
2022/04/09 08:00:50;;;;;;;;;;;;;;;;;;5053940;28;29999;-87
2022/04/09 08:03:15;;;;;;;;;;;;;;;;;;5076167;28;28505;-85
2022/04/09 08:05:40;;;;;;;;;;;;;;;;;;5076780;28;28418;-89
2022/04/09 08:08:07;;;;;;;;;;;;;;;;;;5058423;28;28608;-86
2022/04/09 08:10:32;;;;;;;;;;;;;;;;;;5076371;28;28758;-85
2022/04/09 08:12:57;;;;;;;;;;;;;;;;;;5075220;28;28591;-86
2022/04/09 08:15:22;;;;;;;;;;;;;;;;;;5076008;28;28415;-86
2022/04/09 08:17:47;;;;;;;;;;;;;;;;;;5076611;28;28393;-85
2022/04/09 08:20:14;;;;;;;;;;;;;;;;;;5075811;28;28590;-85
2022/04/09 08:22:39;;;;;;;;;;;;;;;;;;5076380;28;28319;-86
2022/04/09 08:25:05;;;;;;;;;;;;;;;;;;5076006;28;28303;-85
2022/04/09 08:27:30;;;;;;;;;;;;;;;;;;5076164;28;28240;-86
2022/04/09 08:29:55;;;;;;;;;;;;;;;;;;5075968;28;28483;-86
2022/04/09 08:32:22;;;;;;;;;;;;;;;;;;5076438;28;28531;-87
2022/04/09 08:34:47;;;;;;;;;;;;;;;;;;5076164;28;28511;-90
2022/04/09 08:37:13;;;;;;;;;;;;;;;;;;5075004;28;28392;-89
2022/04/09 08:39:38;;;;;;;;;;;;;;;;;;5060923;28;29780;-89
2022/04/09 08:42:03;;;;;;;;;;;;;;;;;;5076097;28;28538;-90
2022/04/09 08:44:28;;;;;;;;;;;;;;;;;;5059470;28;28465;-88
2022/04/09 08:46:53;;;;;;;;;;;;;;;;;;5076002;28;28423;-91
2022/04/09 08:49:18;;;;;;;;;;;;;;;;;;5071952;28;28399;-87
2022/04/09 08:51:43;;;;;;;;;;;;;;;;;;5060968;28;28547;-86
2022/04/09 08:54:08;;;;;;;;;;;;;;;;;;5064860;28;28534;-86
2022/04/09 08:56:34;;;;;;;;;;;;;;;;;;5063936;28;28523;-89
2022/04/09 08:58:59;;;;;;;;;;;;;;;;;;5075125;28;28522;-87
2022/04/09 09:01:24;;;;;;;;;;;;;;;;;;5072338;28;28542;-90
2022/04/09 09:03:49;;;;;;;;;;;;;;;;;;5061103;28;28547;-94
2022/04/09 09:06:15;;;;;;;;;;;;;;;;;;5061036;28;28586;-88
2022/04/09 09:08:43;;;;;;;;;;;;;;;;;;5070524;28;28772;-90
2022/04/09 09:11:08;;;;;;;;;;;;;;;;;;5075215;28;28649;-88
2022/04/09 09:13:33;;;;;;;;;;;;;;;;;;5076137;28;28373;-90
2022/04/09 09:15:58;;;;;;;;;;;;;;;;;;5045092;28;28616;-91
2022/04/09 09:18:26;;;;;;;;;;;;;;;;;;5048197;28;30226;-93
2022/04/09 09:20:51;;;;;;;;;;;;;;;;;;5045859;28;28397;-89
2022/04/09 09:23:16;;;;;;;;;;;;;;;;;;5063071;28;27918;-88
2022/04/09 09:25:41;;;;;;;;;;;;;;;;;;5058002;28;28527;-85
2022/04/09 09:28:06;;;;;;;;;;;;;;;;;;5071707;28;28644;-82
2022/04/09 09:30:31;;;;;;;;;;;;;;;;;;5072979;28;28314;-80
2022/04/09 09:32:56;;;;;;;;;;;;;;;;;;5037478;28;28463;-92
2022/04/09 09:35:21;;;;;;;;;;;;;;;;;;5039922;28;28506;-91
2022/04/09 09:37:46;;;;;;;;;;;;;;;;;;5061627;28;28431;-89
2022/04/09 09:40:12;;;;;;;;;;;;;;;;;;5071136;28;28388;-89
2022/04/09 09:42:37;;;;;;;;;;;;;;;;;;5064928;28;28551;-88
2022/04/09 09:45:02;;;;;;;;;;;;;;;;;;5070445;28;28450;-89
2022/04/09 09:47:27;;;;;;;;;;;;;;;;;;5072656;28;28536;-87
2022/04/09 09:49:56;;;;;;;;;;;;;;;;;;5047035;28;28526;-88
2022/04/09 09:52:21;;;;;;;;;;;;;;;;;;5057944;28;28341;-88
2022/04/09 09:54:46;;;;;;;;;;;;;;;;;;5057635;28;28491;-88
2022/04/09 09:57:11;;;;;;;;;;;;;;;;;;5055126;28;28760;-87
2022/04/09 09:59:36;;;;;;;;;;;;;;;;;;5067406;28;28471;-88
2022/04/09 10:02:02;;;;;;;;;;;;;;;;;;5067683;28;28507;-88
2022/04/09 10:04:27;;;;;;;;;;;;;;;;;;5076433;28;28557;-87
2022/04/09 10:06:52;;;;;;;;;;;;;;;;;;5076243;28;28585;-88
2022/04/09 10:09:19;;;;;;;;;;;;;;;;;;5077781;28;28584;-89
2022/04/09 10:11:49;;;;;;;;;;;;;;;;;;5073656;28;28431;-89
2022/04/09 10:14:14;;;;;;;;;;;;;;;;;;5077496;28;28570;-89
2022/04/09 10:16:39;;;;;;;;;;;;;;;;;;5077582;28;28821;-90
2022/04/09 10:19:05;;;;;;;;;;;;;;;;;;5057999;28;29391;-85
2022/04/09 10:21:30;;;;;;;;;;;;;;;;;;5077186;28;28423;-82
2022/04/09 10:23:55;;;;;;;;;;;;;;;;;;5077515;28;28443;-83
2022/04/09 10:26:21;;;;;;;;;;;;;;;;;;5077458;28;28565;-84
2022/04/09 10:28:47;;;;;;;;;;;;;;;;;;5089844;28;27839;-84
2022/04/09 10:31:12;;;;;;;;;;;;;;;;;;5077023;28;28494;-91
2022/04/09 10:33:37;;;;;;;;;;;;;;;;;;5060458;28;28371;-86
2022/04/09 10:36:03;;;;;;;;;;;;;;;;;;5059322;28;28545;-90
2022/04/09 10:38:28;;;;;;;;;;;;;;;;;;5079911;28;28293;-89
2022/04/09 10:40:55;;;;;;;;;;;;;;;;;;5057919;28;28321;-83
2022/04/09 10:43:20;;;;;;;;;;;;;;;;;;5078419;28;28472;-87
2022/04/09 10:45:45;;;;;;;;;;;;;;;;;;5077005;28;28392;-81
2022/04/09 10:48:14;;;;;;;;;;;;;;;;;;5076868;28;28507;-86
2022/04/09 10:50:39;;;;;;;;;;;;;;;;;;5078646;28;28514;-85
2022/04/09 10:53:04;;;;;;;;;;;;;;;;;;5078310;28;28405;-86
2022/04/09 10:55:31;;;;;;;;;;;;;;;;;;5078308;28;28582;-91
2022/04/09 10:57:56;;;;;;;;;;;;;;;;;;5061971;28;28457;-90
2022/04/09 11:00:29;;;;;;;;;;;;;;;;;;5078617;28;28657;-83
2022/04/09 11:02:54;;;;;;;;;;;;;;;;;;5059055;28;28786;-89
2022/04/09 11:05:20;;;;;;;;;;;;;;;;;;5059021;28;28400;-84
2022/04/09 11:07:45;;;;;;;;;;;;;;;;;;5069745;28;28525;-82
2022/04/09 11:10:10;;;;;;;;;;;;;;;;;;5076036;28;29848;-85
2022/04/09 11:12:35;;;;;;;;;;;;;;;;;;5074677;28;28487;-86
2022/04/09 11:15:00;;;;;;;;;;;;;;;;;;5069957;28;28514;-80
2022/04/09 11:17:26;;;;;;;;;;;;;;;;;;5066712;28;28491;-81
2022/04/09 11:19:51;;;;;;;;;;;;;;;;;;5072248;28;28424;-88
2022/04/09 11:22:16;;;;;;;;;;;;;;;;;;5065922;28;28341;-91
2022/04/09 11:24:41;;;;;;;;;;;;;;;;;;5042752;28;28600;-91
2022/04/09 11:27:06;;;;;;;;;;;;;;;;;;5057617;28;28430;-84
2022/04/09 11:29:31;;;;;;;;;;;;;;;;;;5058423;28;28403;-90
2022/04/09 11:31:56;;;;;;;;;;;;;;;;;;5062475;28;28860;-90
2022/04/09 11:34:21;;;;;;;;;;;;;;;;;;5079122;28;28426;-86
2022/04/09 11:36:47;;;;;;;;;;;;;;;;;;5076899;28;28403;-86
2022/04/09 11:39:12;;;;;;;;;;;;;;;;;;5077356;28;28392;-90
2022/04/09 11:41:37;;;;;;;;;;;;;;;;;;5074285;28;28382;-87
2022/04/09 11:44:02;;;;;;;;;;;;;;;;;;5057026;28;30660;-88
2022/04/09 11:46:32;;;;;;;;;;;;;;;;;;5067051;28;28293;-85
2022/04/09 11:48:57;;;;;;;;;;;;;;;;;;5068940;28;28404;-85
2022/04/09 11:51:22;;;;;;;;;;;;;;;;;;5075369;28;28601;-87
2022/04/09 11:53:47;;;;;;;;;;;;;;;;;;5074611;28;28633;-87
2022/04/09 11:56:12;;;;;;;;;;;;;;;;;;5069228;28;28304;-89
2022/04/09 11:58:37;;;;;;;;;;;;;;;;;;5049483;28;28620;-88
2022/04/09 12:01:02;;;;;;;;;;;;;;;;;;5051463;28;28476;-82
2022/04/09 12:03:27;;;;;;;;;;;;;;;;;;5073026;28;28610;-83
2022/04/09 12:05:52;;;;;;;;;;;;;;;;;;5074641;28;28603;-87
2022/04/09 12:08:17;;;;;;;;;;;;;;;;;;5077700;28;28413;-91
2022/04/09 12:11:01;;;;;;;;;;;;;;;;;;5067965;28;28495;-95
2022/04/09 12:28:57;;;;;;;;;;;;;;;;;;5062890;28;28399;-93
2022/04/09 12:31:25;;;;;;;;;;;;;;;;;;5064326;28;28398;-95
2022/04/09 12:33:51;;;;;;;;;;;;;;;;;;5055146;28;28761;-95
2022/04/09 12:36:19;;;;;;;;;;;;;;;;;;5068951;28;28455;-95
2022/04/09 12:38:45;;;;;;;;;;;;;;;;;;5054062;28;28560;-94
2022/04/09 12:41:10;;;;;;;;;;;;;;;;;;5054625;28;28344;-96
2022/04/09 12:43:35;;;;;;;;;;;;;;;;;;5082286;28;31118;-92
2022/04/09 12:46:00;;;;;;;;;;;;;;;;;;5060069;28;28466;-92
2022/04/09 12:48:26;;;;;;;;;;;;;;;;;;5075659;28;28129;-95
2022/04/09 12:50:51;;;;;;;;;;;;;;;;;;5079890;28;28352;-95
2022/04/09 12:53:17;;;;;;;;;;;;;;;;;;5066410;28;29978;-95
2022/04/09 12:55:42;;;;;;;;;;;;;;;;;;5062514;28;28535;-96
2022/04/09 12:58:07;;;;;;;;;;;;;;;;;;5064264;28;27781;-96
2022/04/09 13:00:36;;;;;;;;;;;;;;;;;;5064240;28;27834;-94
2022/04/09 13:03:01;;;;;;;;;;;;;;;;;;5043087;28;30059;-94
2022/04/09 13:05:26;;;;;;;;;;;;;;;;;;5040399;28;28501;-95
2022/04/09 13:07:51;;;;;;;;;;;;;;;;;;5041378;28;28381;-94
2022/04/09 13:10:16;;;;;;;;;;;;;;;;;;5058275;28;28597;-93
2022/04/09 13:12:41;;;;;;;;;;;;;;;;;;5058796;28;29716;-92
2022/04/09 13:15:07;;;;;;;;;;;;;;;;;;5058762;28;28406;-92
2022/04/09 13:17:34;;;;;;;;;;;;;;;;;;5060821;28;28272;-92
2022/04/09 13:19:59;;;;;;;;;;;;;;;;;;5057265;28;28269;-94
2022/04/09 13:22:24;;;;;;;;;;;;;;;;;;5058455;28;28394;-93
2022/04/09 13:24:50;;;;;;;;;;;;;;;;;;5056308;28;28646;-93
2022/04/09 13:27:15;;;;;;;;;;;;;;;;;;5064533;28;27811;-96
2022/04/09 13:29:40;;;;;;;;;;;;;;;;;;5053575;28;28474;-95
2022/04/09 13:32:05;;;;;;;;;;;;;;;;;;5056124;28;31353;-86
2022/04/09 13:34:30;;;;;;;;;;;;;;;;;;5058491;28;28422;-95
2022/04/09 13:36:58;;;;;;;;;;;;;;;;;;5043250;28;28487;-94
2022/04/09 13:39:24;;;;;;;;;;;;;;;;;;5057694;28;27843;-94
2022/04/09 13:41:49;;;;;;;;;;;;;;;;;;5058209;28;29873;-96
2022/04/09 13:44:14;;;;;;;;;;;;;;;;;;5056623;28;28484;-94
2022/04/09 13:46:39;;;;;;;;;;;;;;;;;;5058407;28;27890;-93
2022/04/09 13:49:04;;;;;;;;;;;;;;;;;;5052308;28;27953;-94
2022/04/09 13:51:29;;;;;;;;;;;;;;;;;;5058406;28;29862;-96
2022/04/09 13:53:55;;;;;;;;;;;;;;;;;;5058224;28;31464;-96
2022/04/09 13:56:20;;;;;;;;;;;;;;;;;;5056776;28;28514;-93
2022/04/09 13:58:46;;;;;;;;;;;;;;;;;;5056405;28;27899;-93
2022/04/09 14:01:11;;;;;;;;;;;;;;;;;;5052369;28;30171;-94
2022/04/09 14:03:36;;;;;;;;;;;;;;;;;;5057783;28;28534;-91
2022/04/09 14:06:01;;;;;;;;;;;;;;;;;;5054657;28;28221;-91
2022/04/09 14:08:26;;;;;;;;;;;;;;;;;;5056135;28;28330;-92
2022/04/09 14:10:51;;;;;;;;;;;;;;;;;;5055130;28;30382;-91
2022/04/09 14:13:17;;;;;;;;;;;;;;;;;;5062700;28;27775;-91
2022/04/09 14:15:42;;;;;;;;;;;;;;;;;;5055143;28;28473;-90
2022/04/09 14:18:09;;;;;;;;;;;;;;;;;;5056369;28;28486;-92
2022/04/09 14:20:34;;;;;;;;;;;;;;;;;;5058184;28;28620;-86
2022/04/09 14:22:59;;;;;;;;;;;;;;;;;;5054019;28;28336;-90
2022/04/09 14:25:24;;;;;;;;;;;;;;;;;;5050787;28;28649;-91
2022/04/09 14:27:49;;;;;;;;;;;;;;;;;;5039585;28;28484;-90
2022/04/09 14:30:14;;;;;;;;;;;;;;;;;;5037809;28;28659;-82
2022/04/09 14:32:39;;;;;;;;;;;;;;;;;;5054677;28;28546;-91
2022/04/09 14:35:04;;;;;;;;;;;;;;;;;;5053706;28;28591;-93
2022/04/09 14:37:30;;;;;;;;;;;;;;;;;;5057937;28;28348;-90
2022/04/09 14:39:56;;;;;;;;;;;;;;;;;;5054995;28;28704;-93
2022/04/09 14:42:21;;;;;;;;;;;;;;;;;;5056058;28;28521;-92
2022/04/09 14:44:46;;;;;;;;;;;;;;;;;;5057430;28;28834;-93
2022/04/09 14:47:11;;;;;;;;;;;;;;;;;;5050289;28;28561;-91
2022/04/09 14:49:36;;;;;;;;;;;;;;;;;;5050211;28;30998;-92
2022/04/09 14:52:02;;;;;;;;;;;;;;;;;;5056028;28;28708;-91
2022/04/09 14:54:27;;;;;;;;;;;;;;;;;;5054181;28;28583;-91
2022/04/09 14:56:52;;;;;;;;;;;;;;;;;;5056744;28;28493;-90
2022/04/09 14:59:17;;;;;;;;;;;;;;;;;;5056722;28;29390;-90
2022/04/09 15:01:42;;;;;;;;;;;;;;;;;;5058617;28;28510;-92
2022/04/09 15:04:07;;;;;;;;;;;;;;;;;;5055658;28;28530;-89
2022/04/09 15:06:32;;;;;;;;;;;;;;;;;;5058405;28;28563;-91
2022/04/09 15:08:58;;;;;;;;;;;;;;;;;;5056190;28;29844;-88
2022/04/09 15:11:23;;;;;;;;;;;;;;;;;;5056413;28;28620;-88
2022/04/09 15:13:48;;;;;;;;;;;;;;;;;;5057169;28;28291;-89
2022/04/09 15:16:13;;;;;;;;;;;;;;;;;;5055778;28;28439;-88
2022/04/09 15:18:42;;;;;;;;;;;;;;;;;;5074346;28;29251;-88
2022/04/09 15:21:07;;;;;;;;;;;;;;;;;;5065460;28;28482;-84
2022/04/09 15:23:33;;;;;;;;;;;;;;;;;;5056913;28;28418;-87
2022/04/09 15:25:58;;;;;;;;;;;;;;;;;;5057072;28;28311;-89
2022/04/09 15:28:24;;;;;;;;;;;;;;;;;;5056991;28;28549;-85
2022/04/09 15:30:49;;;;;;;;;;;;;;;;;;5056864;28;28552;-90
2022/04/09 15:33:14;;;;;;;;;;;;;;;;;;5056606;28;28457;-86
2022/04/09 15:35:40;;;;;;;;;;;;;;;;;;5057416;28;28517;-86
2022/04/09 15:38:05;;;;;;;;;;;;;;;;;;5057406;28;29477;-90
2022/04/09 15:40:30;;;;;;;;;;;;;;;;;;5063009;28;28488;-92
2022/04/09 15:42:55;;;;;;;;;;;;;;;;;;5085406;27;27788;-89
2022/04/09 15:45:20;;;;;;;;;;;;;;;;;;5075312;28;28343;-85
2022/04/09 15:47:45;;;;;;;;;;;;;;;;;;5065737;28;28471;-83
2022/04/09 15:50:11;;;;;;;;;;;;;;;;;;5056979;28;28450;-89
2022/04/09 15:52:39;;;;;;;;;;;;;;;;;;5060122;28;28489;-87
2022/04/09 15:55:04;;;;;;;;;;;;;;;;;;5061355;28;28320;-92
2022/04/09 15:57:29;;;;;;;;;;;;;;;;;;5057834;28;28486;-88
2022/04/09 15:59:55;;;;;;;;;;;;;;;;;;5060515;28;28480;-84
2022/04/09 16:02:22;;;;;;;;;;;;;;;;;;5056446;28;28313;-87
2022/04/09 16:04:47;;;;;;;;;;;;;;;;;;5058154;28;28371;-85
2022/04/09 16:07:12;;;;;;;;;;;;;;;;;;5056667;28;29274;-86
2022/04/09 16:09:38;;;;;;;;;;;;;;;;;;5056608;28;28380;-87
2022/04/09 16:12:03;;;;;;;;;;;;;;;;;;5056045;28;28400;-83
2022/04/09 16:14:28;;;;;;;;;;;;;;;;;;5056356;28;28402;-81
2022/04/09 16:16:54;;;;;;;;;;;;;;;;;;5056074;28;29067;-91
2022/04/09 16:19:20;;;;;;;;;;;;;;;;;;5056303;28;28338;-83
2022/04/09 16:21:46;;;;;;;;;;;;;;;;;;5056234;28;28355;-85
2022/04/09 16:24:12;;;;;;;;;;;;;;;;;;5056254;28;27811;-84
2022/04/09 16:26:37;;;;;;;;;;;;;;;;;;5056149;28;29168;-84
2022/04/09 16:29:02;;;;;;;;;;;;;;;;;;5054867;28;28471;-84
2022/04/09 16:31:27;;;;;;;;;;;;;;;;;;5055901;28;28466;-89
2022/04/09 16:33:52;;;;;;;;;;;;;;;;;;5056621;28;28457;-91
2022/04/09 16:36:17;;;;;;;;;;;;;;;;;;5054808;28;29885;-85
2022/04/09 16:38:43;;;;;;;;;;;;;;;;;;5056234;28;28479;-86
2022/04/09 16:41:08;;;;;;;;;;;;;;;;;;5055922;28;28391;-87
2022/04/09 16:43:33;;;;;;;;;;;;;;;;;;5055764;28;28566;-87
2022/04/09 16:45:58;;;;;;;;;;;;;;;;;;5055668;28;29622;-86
2022/04/09 16:48:23;;;;;;;;;;;;;;;;;;5056914;28;28415;-84
2022/04/09 16:50:48;;;;;;;;;;;;;;;;;;5055806;28;28488;-86
2022/04/09 16:53:13;;;;;;;;;;;;;;;;;;5056032;28;28652;-86
2022/04/09 16:55:38;;;;;;;;;;;;;;;;;;5055641;28;28347;-84
2022/04/09 16:58:03;;;;;;;;;;;;;;;;;;5055261;28;28414;-85
2022/04/09 17:00:29;;;;;;;;;;;;;;;;;;5055645;28;28457;-84
2022/04/09 17:02:54;;;;;;;;;;;;;;;;;;5055594;28;28406;-84
2022/04/09 17:05:19;;;;;;;;;;;;;;;;;;5055202;28;28399;-86
2022/04/09 17:07:44;;;;;;;;;;;;;;;;;;5055284;28;28402;-84
2022/04/09 17:10:11;;;;;;;;;;;;;;;;;;5056505;28;28425;-88
2022/04/09 17:12:36;;;;;;;;;;;;;;;;;;5056273;28;28474;-83
2022/04/09 17:15:02;;;;;;;;;;;;;;;;;;5055819;28;29789;-86
2022/04/09 17:17:27;;;;;;;;;;;;;;;;;;5055340;28;28394;-88
2022/04/09 17:19:53;;;;;;;;;;;;;;;;;;5055319;28;28524;-94
2022/04/09 17:22:18;;;;;;;;;;;;;;;;;;5055749;28;28430;-87
2022/04/09 17:24:44;;;;;;;;;;;;;;;;;;5056622;28;28548;-88
2022/04/09 17:27:09;;;;;;;;;;;;;;;;;;5061291;28;27740;-93
2022/04/09 17:29:34;;;;;;;;;;;;;;;;;;5061737;28;28269;-94
2022/04/09 17:31:59;;;;;;;;;;;;;;;;;;5059170;28;28342;-88
2022/04/09 17:34:25;;;;;;;;;;;;;;;;;;5055330;28;29858;-91
2022/04/09 17:36:50;;;;;;;;;;;;;;;;;;5054817;28;28569;-88
2022/04/09 17:39:16;;;;;;;;;;;;;;;;;;5060853;28;28338;-89
2022/04/09 17:41:41;;;;;;;;;;;;;;;;;;5059554;28;28450;-90
2022/04/09 17:44:06;;;;;;;;;;;;;;;;;;5055946;28;28340;-87
2022/04/09 17:46:32;;;;;;;;;;;;;;;;;;5055056;28;28533;-89
2022/04/09 17:48:57;;;;;;;;;;;;;;;;;;5065729;28;28583;-94
2022/04/09 17:51:25;;;;;;;;;;;;;;;;;;5051721;28;28541;-87
2022/04/09 17:53:50;;;;;;;;;;;;;;;;;;5040465;28;29720;-92
2022/04/09 17:56:15;;;;;;;;;;;;;;;;;;5057089;28;28232;-92
2022/04/09 17:58:41;;;;;;;;;;;;;;;;;;5056228;28;28315;-88